Time;durP1;ratioP1;P1;durP2;ratioP2;P2;SDS_P1;SDS_P2;PMS_P1;PMS_P2;Temp;Humidity;BMP_temperature;BMP_pressure;BME280_temperature;BME280_humidity;BME280_pressure;Samples;Min_cycle;Max_cycle;Signal;HPM_P1;HPM_P2
2022/12/24 00:00:00;;;;;;;0.9;0.9;;;;;;;9.3;100.0;100400;;;;
2022/12/24 00:01:00;;;;;;;0.9;0.9;;;;;;;9.3;100.0;100400;;;;
2022/12/24 00:02:00;;;;;;;0.9;0.9;;;;;;;9.4;100.0;100410;;;;
2022/12/24 00:03:00;;;;;;;1.6;1.6;;;;;;;9.4;100.0;100410;;;;
2022/12/24 00:04:00;;;;;;;1.6;1.6;;;;;;;9.4;100.0;100400;;;;
2022/12/24 00:05:01;;;;;;;1.6;1.6;;;;;;;9.4;100.0;100400;;;;
2022/12/24 00:06:04;;;;;;;1.6;1.6;;;;;;;9.4;100.0;100410;;;;
2022/12/24 00:07:00;;;;;;;1.6;1.6;;;;;;;9.4;100.0;100410;;;;
2022/12/24 00:08:00;;;;;;;1.6;1.6;;;;;;;9.3;100.0;100410;;;;
2022/12/24 00:09:00;;;;;;;1.6;1.6;;;;;;;9.3;100.0;100410;;;;
2022/12/24 00:10:00;;;;;;;1.6;1.6;;;;;;;9.3;100.0;100420;;;;
2022/12/24 00:11:00;;;;;;;1.6;1.6;;;;;;;9.3;100.0;100420;;;;
2022/12/24 00:12:00;;;;;;;1.6;1.6;;;;;;;9.3;100.0;100420;;;;
2022/12/24 00:13:00;;;;;;;1.6;1.6;;;;;;;9.3;100.0;100420;;;;
2022/12/24 00:14:00;;;;;;;1.6;1.6;;;;;;;9.3;100.0;100420;;;;
2022/12/24 00:15:00;;;;;;;1.6;1.6;;;;;;;9.3;100.0;100420;;;;
2022/12/24 00:16:00;;;;;;;1.6;1.6;;;;;;;9.2;100.0;100430;;;;
2022/12/24 00:17:00;;;;;;;1.6;1.6;;;;;;;9.2;100.0;100430;;;;
2022/12/24 00:18:00;;;;;;;1.6;1.6;;;;;;;9.3;100.0;100430;;;;
2022/12/24 00:19:00;;;;;;;1.6;1.6;;;;;;;9.3;100.0;100430;;;;
2022/12/24 00:20:00;;;;;;;1.6;1.6;;;;;;;9.2;100.0;100420;;;;
2022/12/24 00:21:02;;;;;;;1.6;1.6;;;;;;;9.2;100.0;100420;;;;
2022/12/24 00:22:00;;;;;;;1.6;1.6;;;;;;;9.3;100.0;100430;;;;
2022/12/24 00:23:00;;;;;;;0.9;0.9;;;;;;;9.3;100.0;100430;;;;
2022/12/24 00:24:03;;;;;;;0.9;0.9;;;;;;;9.3;100.0;100430;;;;
2022/12/24 00:25:00;;;;;;;0.9;0.9;;;;;;;9.3;100.0;100430;;;;
2022/12/24 00:26:00;;;;;;;0.9;0.9;;;;;;;9.4;100.0;100440;;;;
2022/12/24 00:27:01;;;;;;;0.9;0.9;;;;;;;9.4;100.0;100440;;;;
2022/12/24 00:28:00;;;;;;;0.9;0.9;;;;;;;9.3;100.0;100440;;;;
2022/12/24 00:29:00;;;;;;;0.9;0.9;;;;;;;9.3;100.0;100440;;;;
2022/12/24 00:30:00;;;;;;;0.9;0.9;;;;;;;9.3;100.0;100440;;;;
2022/12/24 00:31:05;;;;;;;0.9;0.9;;;;;;;9.3;100.0;100440;;;;
2022/12/24 00:32:00;;;;;;;0.9;0.9;;;;;;;9.3;100.0;100450;;;;
2022/12/24 00:33:00;;;;;;;0.9;0.9;;;;;;;9.3;100.0;100450;;;;
2022/12/24 00:34:00;;;;;;;0.9;0.9;;;;;;;9.3;100.0;100450;;;;
2022/12/24 00:35:00;;;;;;;0.9;0.9;;;;;;;9.3;100.0;100450;;;;
2022/12/24 00:36:00;;;;;;;0.9;0.9;;;;;;;9.3;100.0;100450;;;;
2022/12/24 00:37:00;;;;;;;0.9;0.9;;;;;;;9.3;100.0;100450;;;;
2022/12/24 00:38:00;;;;;;;0.9;0.9;;;;;;;9.4;100.0;100450;;;;
2022/12/24 00:39:00;;;;;;;0.9;0.9;;;;;;;9.4;100.0;100450;;;;
2022/12/24 00:40:00;;;;;;;0.9;0.9;;;;;;;9.4;100.0;100460;;;;
2022/12/24 00:41:01;;;;;;;0.9;0.9;;;;;;;9.4;100.0;100460;;;;
2022/12/24 00:42:00;;;;;;;0.9;0.9;;;;;;;9.5;100.0;100450;;;;
2022/12/24 00:43:00;;;;;;;0.9;0.9;;;;;;;9.5;100.0;100450;;;;
2022/12/24 00:44:01;;;;;;;0.9;0.9;;;;;;;9.5;100.0;100460;;;;
2022/12/24 00:45:00;;;;;;;0.9;0.9;;;;;;;9.5;100.0;100460;;;;
2022/12/24 00:46:00;;;;;;;0.9;0.9;;;;;;;9.5;100.0;100470;;;;
2022/12/24 00:47:00;;;;;;;0.9;0.9;;;;;;;9.5;100.0;100470;;;;
2022/12/24 00:48:00;;;;;;;0.9;0.9;;;;;;;9.4;100.0;100470;;;;
2022/12/24 00:49:00;;;;;;;0.9;0.9;;;;;;;9.4;100.0;100470;;;;
2022/12/24 00:50:01;;;;;;;0.9;0.9;;;;;;;9.4;100.0;100470;;;;
2022/12/24 00:51:00;;;;;;;0.9;0.9;;;;;;;9.4;100.0;100470;;;;
2022/12/24 00:52:01;;;;;;;0.9;0.9;;;;;;;9.4;100.0;100480;;;;
2022/12/24 00:53:00;;;;;;;0.9;0.9;;;;;;;9.4;100.0;100480;;;;
2022/12/24 00:54:00;;;;;;;0.9;0.9;;;;;;;9.4;100.0;100480;;;;
2022/12/24 00:55:00;;;;;;;0.9;0.9;;;;;;;9.4;100.0;100480;;;;
2022/12/24 00:56:00;;;;;;;0.9;0.9;;;;;;;9.4;100.0;100480;;;;
2022/12/24 00:57:00;;;;;;;0.9;0.9;;;;;;;9.4;100.0;100480;;;;
2022/12/24 00:58:00;;;;;;;0.9;0.9;;;;;;;9.4;100.0;100490;;;;
2022/12/24 00:59:00;;;;;;;0.9;0.9;;;;;;;9.4;100.0;100490;;;;
2022/12/24 01:00:00;;;;;;;0.9;0.9;;;;;;;9.4;100.0;100480;;;;
2022/12/24 01:01:00;;;;;;;0.9;0.9;;;;;;;9.4;100.0;100480;;;;
2022/12/24 01:02:00;;;;;;;0.9;0.9;;;;;;;9.4;100.0;100480;;;;
2022/12/24 01:03:00;;;;;;;1.0;1.0;;;;;;;9.4;100.0;100480;;;;
2022/12/24 01:06:01;;;;;;;1.0;1.0;;;;;;;9.4;100.0;100500;;;;
2022/12/24 01:07:00;;;;;;;1.0;1.0;;;;;;;9.4;100.0;100500;;;;
2022/12/24 01:08:00;;;;;;;1.0;1.0;;;;;;;9.4;100.0;100500;;;;
2022/12/24 01:09:00;;;;;;;1.0;1.0;;;;;;;9.4;100.0;100500;;;;
2022/12/24 01:10:00;;;;;;;1.0;1.0;;;;;;;9.3;100.0;100500;;;;
2022/12/24 01:11:01;;;;;;;1.0;1.0;;;;;;;9.3;100.0;100500;;;;
2022/12/24 01:12:00;;;;;;;1.0;1.0;;;;;;;9.4;100.0;100510;;;;
2022/12/24 01:13:01;;;;;;;1.0;1.0;;;;;;;9.4;100.0;100510;;;;
2022/12/24 01:14:00;;;;;;;1.0;1.0;;;;;;;9.4;100.0;100510;;;;
2022/12/24 01:15:00;;;;;;;1.0;1.0;;;;;;;9.4;100.0;100510;;;;
2022/12/24 01:16:00;;;;;;;1.0;1.0;;;;;;;9.4;100.0;100500;;;;
2022/12/24 01:17:00;;;;;;;1.0;1.0;;;;;;;9.4;100.0;100500;;;;
2022/12/24 01:18:00;;;;;;;1.0;1.0;;;;;;;9.4;100.0;100500;;;;
2022/12/24 01:19:00;;;;;;;1.0;1.0;;;;;;;9.4;100.0;100500;;;;
2022/12/24 01:20:00;;;;;;;1.0;1.0;;;;;;;9.4;100.0;100510;;;;
2022/12/24 01:21:01;;;;;;;1.0;1.0;;;;;;;9.4;100.0;100510;;;;
2022/12/24 01:22:00;;;;;;;1.0;1.0;;;;;;;9.4;100.0;100510;;;;
2022/12/24 01:23:00;;;;;;;1.0;1.0;;;;;;;9.4;100.0;100510;;;;
2022/12/24 01:24:00;;;;;;;1.0;1.0;;;;;;;9.3;100.0;100510;;;;
2022/12/24 01:25:00;;;;;;;1.0;1.0;;;;;;;9.3;100.0;100510;;;;
2022/12/24 01:26:02;;;;;;;1.0;1.0;;;;;;;9.4;100.0;100530;;;;
2022/12/24 01:27:00;;;;;;;1.0;1.0;;;;;;;9.4;100.0;100530;;;;
2022/12/24 01:28:00;;;;;;;1.0;1.0;;;;;;;9.3;100.0;100510;;;;
2022/12/24 01:29:00;;;;;;;1.0;1.0;;;;;;;9.3;100.0;100510;;;;
2022/12/24 01:30:00;;;;;;;1.0;1.0;;;;;;;9.3;100.0;100520;;;;
2022/12/24 01:31:00;;;;;;;1.0;1.0;;;;;;;9.3;100.0;100520;;;;
2022/12/24 01:32:00;;;;;;;1.0;1.0;;;;;;;9.3;100.0;100530;;;;
2022/12/24 01:33:00;;;;;;;1.0;1.0;;;;;;;9.3;100.0;100530;;;;
2022/12/24 01:34:00;;;;;;;1.0;1.0;;;;;;;9.3;100.0;100540;;;;
2022/12/24 01:35:00;;;;;;;1.0;1.0;;;;;;;9.3;100.0;100540;;;;
2022/12/24 01:36:01;;;;;;;1.0;1.0;;;;;;;9.4;100.0;100540;;;;
2022/12/24 01:37:00;;;;;;;1.0;1.0;;;;;;;9.4;100.0;100540;;;;
2022/12/24 01:38:00;;;;;;;1.0;1.0;;;;;;;9.4;100.0;100530;;;;
2022/12/24 01:39:00;;;;;;;1.0;1.0;;;;;;;9.4;100.0;100530;;;;
2022/12/24 01:44:10;;;;;;;1.2;1.2;;;;;;;9.4;100.0;100540;;;;
2022/12/24 01:45:10;;;;;;;1.2;1.2;;;;;;;9.4;100.0;100540;;;;
2022/12/24 01:46:03;;;;;;;1.2;1.2;;;;;;;9.4;100.0;100550;;;;
2022/12/24 01:47:00;;;;;;;1.2;1.2;;;;;;;9.4;100.0;100550;;;;
2022/12/24 01:48:00;;;;;;;1.2;1.2;;;;;;;9.3;100.0;100550;;;;
2022/12/24 01:49:01;;;;;;;1.2;1.2;;;;;;;9.3;100.0;100550;;;;
2022/12/24 01:50:02;;;;;;;1.2;1.2;;;;;;;9.3;100.0;100540;;;;
2022/12/24 01:51:03;;;;;;;1.2;1.2;;;;;;;9.3;100.0;100540;;;;
2022/12/24 01:52:02;;;;;;;1.2;1.2;;;;;;;9.2;100.0;100550;;;;
2022/12/24 01:53:01;;;;;;;1.2;1.2;;;;;;;9.2;100.0;100550;;;;
2022/12/24 01:54:03;;;;;;;1.2;1.2;;;;;;;9.2;100.0;100550;;;;
2022/12/24 01:55:10;;;;;;;1.2;1.2;;;;;;;9.2;100.0;100550;;;;
2022/12/24 01:56:00;;;;;;;1.2;1.2;;;;;;;9.2;100.0;100550;;;;
2022/12/24 01:57:04;;;;;;;1.2;1.2;;;;;;;9.2;100.0;100550;;;;
2022/12/24 01:58:02;;;;;;;1.2;1.2;;;;;;;9.2;100.0;100550;;;;
2022/12/24 01:59:02;;;;;;;1.2;1.2;;;;;;;9.2;100.0;100550;;;;
2022/12/24 02:00:04;;;;;;;1.2;1.2;;;;;;;9.1;100.0;100550;;;;
2022/12/24 02:01:00;;;;;;;1.2;1.2;;;;;;;9.1;100.0;100550;;;;
2022/12/24 02:02:01;;;;;;;1.2;1.2;;;;;;;9.1;100.0;100560;;;;
2022/12/24 02:03:00;;;;;;;1.2;1.2;;;;;;;9.1;100.0;100560;;;;
2022/12/24 02:04:03;;;;;;;1.2;1.2;;;;;;;9.1;100.0;100560;;;;
2022/12/24 02:05:10;;;;;;;1.2;1.2;;;;;;;9.1;100.0;100560;;;;
2022/12/24 02:06:00;;;;;;;1.2;1.2;;;;;;;9.1;100.0;100570;;;;
2022/12/24 02:07:00;;;;;;;1.2;1.2;;;;;;;9.1;100.0;100570;;;;
2022/12/24 02:08:01;;;;;;;1.2;1.2;;;;;;;9.0;100.0;100570;;;;
2022/12/24 02:09:00;;;;;;;1.2;1.2;;;;;;;9.0;100.0;100570;;;;
2022/12/24 02:10:01;;;;;;;1.2;1.2;;;;;;;9.0;100.0;100580;;;;
2022/12/24 02:11:00;;;;;;;1.2;1.2;;;;;;;9.0;100.0;100580;;;;
2022/12/24 02:12:00;;;;;;;1.2;1.2;;;;;;;9.0;100.0;100580;;;;
2022/12/24 02:13:01;;;;;;;1.2;1.2;;;;;;;9.0;100.0;100580;;;;
2022/12/24 02:14:00;;;;;;;1.2;1.2;;;;;;;9.0;100.0;100580;;;;
2022/12/24 02:15:00;;;;;;;1.2;1.2;;;;;;;9.0;100.0;100580;;;;
2022/12/24 02:16:10;;;;;;;1.2;1.2;;;;;;;9.1;100.0;100580;;;;
2022/12/24 02:17:10;;;;;;;1.2;1.2;;;;;;;9.1;100.0;100580;;;;
2022/12/24 02:18:06;;;;;;;1.2;1.2;;;;;;;9.1;100.0;100580;;;;
2022/12/24 02:19:03;;;;;;;1.2;1.2;;;;;;;9.1;100.0;100580;;;;
2022/12/24 02:20:10;;;;;;;1.2;1.2;;;;;;;9.1;100.0;100590;;;;
2022/12/24 02:21:01;;;;;;;1.2;1.2;;;;;;;9.1;100.0;100590;;;;
2022/12/24 02:22:06;;;;;;;1.2;1.2;;;;;;;9.1;100.0;100590;;;;
2022/12/24 02:23:10;;;;;;;1.0;1.0;;;;;;;9.1;100.0;100590;;;;
2022/12/24 02:24:00;;;;;;;1.0;1.0;;;;;;;9.1;100.0;100580;;;;
2022/12/24 02:25:10;;;;;;;1.0;1.0;;;;;;;9.1;100.0;100580;;;;
2022/12/24 02:26:10;;;;;;;1.0;1.0;;;;;;;9.1;100.0;100580;;;;
2022/12/24 02:27:10;;;;;;;1.0;1.0;;;;;;;9.1;100.0;100580;;;;
2022/12/24 02:28:07;;;;;;;1.0;1.0;;;;;;;9.2;100.0;100580;;;;
2022/12/24 02:29:10;;;;;;;1.0;1.0;;;;;;;9.2;100.0;100580;;;;
2022/12/24 02:30:10;;;;;;;1.0;1.0;;;;;;;9.1;100.0;100590;;;;
2022/12/24 02:31:03;;;;;;;1.0;1.0;;;;;;;9.1;100.0;100590;;;;
2022/12/24 02:32:02;;;;;;;1.0;1.0;;;;;;;9.2;100.0;100590;;;;
2022/12/24 02:33:10;;;;;;;1.0;1.0;;;;;;;9.2;100.0;100590;;;;
2022/12/24 02:34:05;;;;;;;1.0;1.0;;;;;;;9.2;100.0;100590;;;;
2022/12/24 02:35:07;;;;;;;1.0;1.0;;;;;;;9.2;100.0;100590;;;;
2022/12/24 02:36:10;;;;;;;1.0;1.0;;;;;;;9.2;100.0;100590;;;;
2022/12/24 02:37:05;;;;;;;1.0;1.0;;;;;;;9.2;100.0;100590;;;;
2022/12/24 02:38:04;;;;;;;1.0;1.0;;;;;;;9.2;100.0;100590;;;;
2022/12/24 02:39:01;;;;;;;1.0;1.0;;;;;;;9.2;100.0;100590;;;;
2022/12/24 02:40:03;;;;;;;1.0;1.0;;;;;;;9.2;100.0;100590;;;;
2022/12/24 02:41:02;;;;;;;1.0;1.0;;;;;;;9.2;100.0;100590;;;;
2022/12/24 02:42:04;;;;;;;1.0;1.0;;;;;;;9.2;100.0;100590;;;;
2022/12/24 02:43:03;;;;;;;1.1;1.1;;;;;;;9.2;100.0;100590;;;;
2022/12/24 02:44:00;;;;;;;1.1;1.1;;;;;;;9.3;100.0;100590;;;;
2022/12/24 02:45:04;;;;;;;1.1;1.1;;;;;;;9.3;100.0;100590;;;;
2022/12/24 02:46:04;;;;;;;1.1;1.1;;;;;;;9.3;100.0;100600;;;;
2022/12/24 02:47:02;;;;;;;1.1;1.1;;;;;;;9.3;100.0;100600;;;;
2022/12/24 02:48:00;;;;;;;1.1;1.1;;;;;;;9.3;100.0;100590;;;;
2022/12/24 02:49:00;;;;;;;1.1;1.1;;;;;;;9.3;100.0;100590;;;;
2022/12/24 02:50:01;;;;;;;1.1;1.1;;;;;;;9.3;100.0;100600;;;;
2022/12/24 02:51:02;;;;;;;1.1;1.1;;;;;;;9.3;100.0;100600;;;;
2022/12/24 02:52:00;;;;;;;1.1;1.1;;;;;;;9.3;100.0;100600;;;;
2022/12/24 02:53:00;;;;;;;1.1;1.1;;;;;;;9.3;100.0;100600;;;;
2022/12/24 02:54:00;;;;;;;1.1;1.1;;;;;;;9.3;100.0;100600;;;;
2022/12/24 02:55:10;;;;;;;1.1;1.1;;;;;;;9.3;100.0;100600;;;;
2022/12/24 02:56:03;;;;;;;1.1;1.1;;;;;;;9.4;100.0;100600;;;;
2022/12/24 02:57:10;;;;;;;1.1;1.1;;;;;;;9.4;100.0;100600;;;;
2022/12/24 02:58:10;;;;;;;1.1;1.1;;;;;;;9.4;100.0;100600;;;;
2022/12/24 02:59:10;;;;;;;1.1;1.1;;;;;;;9.4;100.0;100600;;;;
2022/12/24 03:00:03;;;;;;;1.1;1.1;;;;;;;9.4;100.0;100600;;;;
2022/12/24 03:02:10;;;;;;;1.3;1.3;;;;;;;9.5;100.0;100610;;;;
2022/12/24 03:03:01;;;;;;;1.3;1.3;;;;;;;9.5;100.0;100610;;;;
2022/12/24 03:04:01;;;;;;;1.3;1.3;;;;;;;9.4;100.0;100610;;;;
2022/12/24 03:05:09;;;;;;;1.3;1.3;;;;;;;9.4;100.0;100610;;;;
2022/12/24 03:06:10;;;;;;;1.3;1.3;;;;;;;9.4;100.0;100610;;;;
2022/12/24 03:07:05;;;;;;;1.3;1.3;;;;;;;9.4;100.0;100610;;;;
2022/12/24 03:08:04;;;;;;;1.3;1.3;;;;;;;9.5;100.0;100610;;;;
2022/12/24 03:09:07;;;;;;;1.3;1.3;;;;;;;9.5;100.0;100610;;;;
2022/12/24 03:10:05;;;;;;;1.3;1.3;;;;;;;9.4;100.0;100600;;;;
2022/12/24 03:11:08;;;;;;;1.3;1.3;;;;;;;9.4;100.0;100600;;;;
2022/12/24 03:12:03;;;;;;;1.3;1.3;;;;;;;9.5;100.0;100600;;;;
2022/12/24 03:13:05;;;;;;;1.3;1.3;;;;;;;9.5;100.0;100600;;;;
2022/12/24 03:14:00;;;;;;;1.3;1.3;;;;;;;9.4;100.0;100600;;;;
2022/12/24 03:15:01;;;;;;;1.3;1.3;;;;;;;9.4;100.0;100600;;;;
2022/12/24 03:16:03;;;;;;;1.3;1.3;;;;;;;9.3;100.0;100610;;;;
2022/12/24 03:17:01;;;;;;;1.3;1.3;;;;;;;9.3;100.0;100610;;;;
2022/12/24 03:18:01;;;;;;;1.3;1.3;;;;;;;9.3;100.0;100610;;;;
2022/12/24 03:19:00;;;;;;;1.3;1.3;;;;;;;9.3;100.0;100610;;;;
2022/12/24 03:20:00;;;;;;;1.3;1.3;;;;;;;9.3;100.0;100610;;;;
2022/12/24 03:21:10;;;;;;;1.3;1.3;;;;;;;9.3;100.0;100610;;;;
2022/12/24 03:22:02;;;;;;;0.9;0.9;;;;;;;9.4;100.0;100610;;;;
2022/12/24 03:23:00;;;;;;;0.9;0.9;;;;;;;9.4;100.0;100610;;;;
2022/12/24 03:24:00;;;;;;;0.9;0.9;;;;;;;9.3;100.0;100610;;;;
2022/12/24 03:25:00;;;;;;;0.9;0.9;;;;;;;9.3;100.0;100610;;;;
2022/12/24 03:26:03;;;;;;;0.9;0.9;;;;;;;9.3;100.0;100600;;;;
2022/12/24 03:27:00;;;;;;;0.9;0.9;;;;;;;9.3;100.0;100600;;;;
2022/12/24 03:28:01;;;;;;;0.9;0.9;;;;;;;9.3;100.0;100600;;;;
2022/12/24 03:29:03;;;;;;;0.9;0.9;;;;;;;9.3;100.0;100600;;;;
2022/12/24 03:30:01;;;;;;;0.9;0.9;;;;;;;9.3;100.0;100610;;;;
2022/12/24 03:31:02;;;;;;;0.9;0.9;;;;;;;9.3;100.0;100610;;;;
2022/12/24 03:32:01;;;;;;;0.9;0.9;;;;;;;9.3;100.0;100610;;;;
2022/12/24 03:33:00;;;;;;;0.9;0.9;;;;;;;9.3;100.0;100610;;;;
2022/12/24 03:34:00;;;;;;;0.9;0.9;;;;;;;9.3;100.0;100610;;;;
2022/12/24 03:35:00;;;;;;;0.9;0.9;;;;;;;9.3;100.0;100610;;;;
2022/12/24 03:36:00;;;;;;;0.9;0.9;;;;;;;9.3;100.0;100620;;;;
2022/12/24 03:37:00;;;;;;;0.9;0.9;;;;;;;9.3;100.0;100620;;;;
2022/12/24 03:38:00;;;;;;;0.9;0.9;;;;;;;9.3;100.0;100610;;;;
2022/12/24 03:39:00;;;;;;;0.9;0.9;;;;;;;9.3;100.0;100610;;;;
2022/12/24 03:40:00;;;;;;;0.9;0.9;;;;;;;9.3;100.0;100610;;;;
2022/12/24 03:41:00;;;;;;;0.9;0.9;;;;;;;9.3;100.0;100610;;;;
2022/12/24 03:42:00;;;;;;;2.3;1.7;;;;;;;9.4;100.0;100620;;;;
2022/12/24 03:43:00;;;;;;;2.3;1.7;;;;;;;9.4;100.0;100620;;;;
2022/12/24 03:44:00;;;;;;;2.3;1.7;;;;;;;9.4;100.0;100610;;;;
2022/12/24 03:45:00;;;;;;;2.3;1.7;;;;;;;9.4;100.0;100610;;;;
2022/12/24 03:46:02;;;;;;;2.3;1.7;;;;;;;9.4;100.0;100620;;;;
2022/12/24 03:47:00;;;;;;;2.3;1.7;;;;;;;9.4;100.0;100620;;;;
2022/12/24 03:48:00;;;;;;;2.3;1.7;;;;;;;9.4;100.0;100620;;;;
2022/12/24 03:49:00;;;;;;;2.3;1.7;;;;;;;9.4;100.0;100620;;;;
2022/12/24 03:50:00;;;;;;;2.3;1.7;;;;;;;9.4;100.0;100620;;;;
2022/12/24 03:51:00;;;;;;;2.3;1.7;;;;;;;9.4;100.0;100620;;;;
2022/12/24 03:52:00;;;;;;;2.3;1.7;;;;;;;9.3;100.0;100620;;;;
2022/12/24 03:53:00;;;;;;;2.3;1.7;;;;;;;9.3;100.0;100620;;;;
2022/12/24 03:54:00;;;;;;;2.3;1.7;;;;;;;9.4;100.0;100620;;;;
2022/12/24 03:55:00;;;;;;;2.3;1.7;;;;;;;9.4;100.0;100620;;;;
2022/12/24 03:56:00;;;;;;;2.3;1.7;;;;;;;9.4;100.0;100630;;;;
2022/12/24 03:57:00;;;;;;;2.3;1.7;;;;;;;9.4;100.0;100630;;;;
2022/12/24 03:58:00;;;;;;;2.3;1.7;;;;;;;9.4;100.0;100630;;;;
2022/12/24 03:59:00;;;;;;;2.3;1.7;;;;;;;9.4;100.0;100630;;;;
2022/12/24 04:00:00;;;;;;;2.3;1.7;;;;;;;9.4;100.0;100630;;;;
2022/12/24 04:01:00;;;;;;;2.3;1.7;;;;;;;9.4;100.0;100630;;;;
2022/12/24 04:02:00;;;;;;;1.3;1.3;;;;;;;9.4;100.0;100630;;;;
2022/12/24 04:03:00;;;;;;;1.3;1.3;;;;;;;9.4;100.0;100630;;;;
2022/12/24 04:04:00;;;;;;;1.3;1.3;;;;;;;9.4;100.0;100640;;;;
2022/12/24 04:05:00;;;;;;;1.3;1.3;;;;;;;9.4;100.0;100640;;;;
2022/12/24 04:06:01;;;;;;;1.3;1.3;;;;;;;9.4;100.0;100640;;;;
2022/12/24 04:07:00;;;;;;;1.3;1.3;;;;;;;9.4;100.0;100640;;;;
2022/12/24 04:08:00;;;;;;;1.3;1.3;;;;;;;9.4;100.0;100640;;;;
2022/12/24 04:09:03;;;;;;;1.3;1.3;;;;;;;9.4;100.0;100640;;;;
2022/12/24 04:10:00;;;;;;;1.3;1.3;;;;;;;9.5;100.0;100640;;;;
2022/12/24 04:11:07;;;;;;;1.3;1.3;;;;;;;9.5;100.0;100640;;;;
2022/12/24 04:12:00;;;;;;;1.3;1.3;;;;;;;9.4;100.0;100640;;;;
2022/12/24 04:13:00;;;;;;;1.3;1.3;;;;;;;9.4;100.0;100640;;;;
2022/12/24 04:14:00;;;;;;;1.3;1.3;;;;;;;9.5;100.0;100640;;;;
2022/12/24 04:15:00;;;;;;;1.3;1.3;;;;;;;9.5;100.0;100640;;;;
2022/12/24 04:16:03;;;;;;;1.3;1.3;;;;;;;9.5;100.0;100640;;;;
2022/12/24 04:17:00;;;;;;;1.3;1.3;;;;;;;9.5;100.0;100640;;;;
2022/12/24 04:18:00;;;;;;;1.3;1.3;;;;;;;9.6;100.0;100640;;;;
2022/12/24 04:19:00;;;;;;;1.3;1.3;;;;;;;9.6;100.0;100640;;;;
2022/12/24 04:20:00;;;;;;;1.3;1.3;;;;;;;9.6;100.0;100650;;;;
2022/12/24 04:21:00;;;;;;;1.3;1.3;;;;;;;9.6;100.0;100650;;;;
2022/12/24 04:22:00;;;;;;;0.8;0.8;;;;;;;9.6;100.0;100650;;;;
2022/12/24 04:23:00;;;;;;;0.8;0.8;;;;;;;9.6;100.0;100650;;;;
2022/12/24 04:24:00;;;;;;;0.8;0.8;;;;;;;9.6;100.0;100650;;;;
2022/12/24 04:25:00;;;;;;;0.8;0.8;;;;;;;9.6;100.0;100650;;;;
2022/12/24 04:26:01;;;;;;;0.8;0.8;;;;;;;9.6;100.0;100650;;;;
2022/12/24 04:27:00;;;;;;;0.8;0.8;;;;;;;9.6;100.0;100650;;;;
2022/12/24 04:28:00;;;;;;;0.8;0.8;;;;;;;9.6;100.0;100650;;;;
2022/12/24 04:29:00;;;;;;;0.8;0.8;;;;;;;9.6;100.0;100650;;;;
2022/12/24 04:30:00;;;;;;;0.8;0.8;;;;;;;9.6;100.0;100650;;;;
2022/12/24 04:31:01;;;;;;;0.8;0.8;;;;;;;9.6;100.0;100650;;;;
2022/12/24 04:32:00;;;;;;;0.8;0.8;;;;;;;9.6;100.0;100650;;;;
2022/12/24 04:33:00;;;;;;;0.8;0.8;;;;;;;9.6;100.0;100650;;;;
2022/12/24 04:34:00;;;;;;;0.8;0.8;;;;;;;9.6;100.0;100650;;;;
2022/12/24 04:35:00;;;;;;;0.8;0.8;;;;;;;9.6;100.0;100650;;;;
2022/12/24 04:36:01;;;;;;;0.8;0.8;;;;;;;9.6;100.0;100650;;;;
2022/12/24 04:37:00;;;;;;;0.8;0.8;;;;;;;9.6;100.0;100650;;;;
2022/12/24 04:38:00;;;;;;;0.8;0.8;;;;;;;9.6;100.0;100650;;;;
2022/12/24 04:39:00;;;;;;;0.8;0.8;;;;;;;9.6;100.0;100650;;;;
2022/12/24 04:40:00;;;;;;;0.8;0.8;;;;;;;9.7;100.0;100660;;;;
2022/12/24 04:41:01;;;;;;;0.8;0.8;;;;;;;9.7;100.0;100660;;;;
2022/12/24 04:42:00;;;;;;;1.0;1.0;;;;;;;9.7;100.0;100660;;;;
2022/12/24 04:43:00;;;;;;;1.0;1.0;;;;;;;9.7;100.0;100660;;;;
2022/12/24 04:44:00;;;;;;;1.0;1.0;;;;;;;9.7;100.0;100660;;;;
2022/12/24 04:45:00;;;;;;;1.0;1.0;;;;;;;9.7;100.0;100660;;;;
2022/12/24 04:46:04;;;;;;;1.0;1.0;;;;;;;9.7;100.0;100650;;;;
2022/12/24 04:47:00;;;;;;;1.0;1.0;;;;;;;9.7;100.0;100650;;;;
2022/12/24 04:48:00;;;;;;;1.0;1.0;;;;;;;9.7;100.0;100660;;;;
2022/12/24 04:49:00;;;;;;;1.0;1.0;;;;;;;9.7;100.0;100660;;;;
2022/12/24 04:50:00;;;;;;;1.0;1.0;;;;;;;9.7;100.0;100660;;;;
2022/12/24 04:51:01;;;;;;;1.0;1.0;;;;;;;9.7;100.0;100660;;;;
2022/12/24 04:52:00;;;;;;;1.0;1.0;;;;;;;9.7;100.0;100660;;;;
2022/12/24 04:53:00;;;;;;;1.0;1.0;;;;;;;9.7;100.0;100660;;;;
2022/12/24 04:54:00;;;;;;;1.0;1.0;;;;;;;9.6;100.0;100660;;;;
2022/12/24 04:55:00;;;;;;;1.0;1.0;;;;;;;9.6;100.0;100660;;;;
2022/12/24 04:56:00;;;;;;;1.0;1.0;;;;;;;9.6;100.0;100670;;;;
2022/12/24 04:57:00;;;;;;;1.0;1.0;;;;;;;9.6;100.0;100670;;;;
2022/12/24 04:58:00;;;;;;;1.0;1.0;;;;;;;9.6;100.0;100670;;;;
2022/12/24 04:59:00;;;;;;;1.0;1.0;;;;;;;9.6;100.0;100670;;;;
2022/12/24 05:00:00;;;;;;;1.0;1.0;;;;;;;9.6;100.0;100670;;;;
2022/12/24 05:01:04;;;;;;;1.0;1.0;;;;;;;9.6;100.0;100670;;;;
2022/12/24 05:02:00;;;;;;;0.8;0.8;;;;;;;9.6;100.0;100670;;;;
2022/12/24 05:03:00;;;;;;;0.8;0.8;;;;;;;9.6;100.0;100670;;;;
2022/12/24 05:04:00;;;;;;;0.8;0.8;;;;;;;9.7;100.0;100680;;;;
2022/12/24 05:05:00;;;;;;;0.8;0.8;;;;;;;9.7;100.0;100680;;;;
2022/12/24 05:06:01;;;;;;;0.8;0.8;;;;;;;9.7;100.0;100670;;;;
2022/12/24 05:07:00;;;;;;;0.8;0.8;;;;;;;9.7;100.0;100670;;;;
2022/12/24 05:08:00;;;;;;;0.8;0.8;;;;;;;9.6;100.0;100670;;;;
2022/12/24 05:09:00;;;;;;;0.8;0.8;;;;;;;9.6;100.0;100670;;;;
2022/12/24 05:10:00;;;;;;;0.8;0.8;;;;;;;9.6;100.0;100680;;;;
2022/12/24 05:11:00;;;;;;;0.8;0.8;;;;;;;9.6;100.0;100680;;;;
2022/12/24 05:12:00;;;;;;;0.8;0.8;;;;;;;9.7;100.0;100670;;;;
2022/12/24 05:13:00;;;;;;;0.8;0.8;;;;;;;9.7;100.0;100670;;;;
2022/12/24 05:14:00;;;;;;;0.8;0.8;;;;;;;9.6;100.0;100670;;;;
2022/12/24 05:15:00;;;;;;;0.8;0.8;;;;;;;9.6;100.0;100670;;;;
2022/12/24 05:16:00;;;;;;;0.8;0.8;;;;;;;9.6;100.0;100670;;;;
2022/12/24 05:17:00;;;;;;;0.8;0.8;;;;;;;9.6;100.0;100670;;;;
2022/12/24 05:18:00;;;;;;;0.8;0.8;;;;;;;9.6;100.0;100670;;;;
2022/12/24 05:19:00;;;;;;;0.8;0.8;;;;;;;9.6;100.0;100670;;;;
2022/12/24 05:20:00;;;;;;;0.8;0.8;;;;;;;9.6;100.0;100670;;;;
2022/12/24 05:21:00;;;;;;;0.8;0.8;;;;;;;9.6;100.0;100670;;;;
2022/12/24 05:27:00;;;;;;;1.0;1.0;;;;;;;9.6;100.0;100680;;;;
2022/12/24 05:28:00;;;;;;;1.0;1.0;;;;;;;9.7;100.0;100680;;;;
2022/12/24 05:29:00;;;;;;;1.0;1.0;;;;;;;9.7;100.0;100680;;;;
2022/12/24 05:30:00;;;;;;;1.0;1.0;;;;;;;9.7;100.0;100670;;;;
2022/12/24 05:31:00;;;;;;;1.0;1.0;;;;;;;9.7;100.0;100670;;;;
2022/12/24 05:32:00;;;;;;;1.0;1.0;;;;;;;9.6;100.0;100670;;;;
2022/12/24 05:33:00;;;;;;;1.0;1.0;;;;;;;9.6;100.0;100670;;;;
2022/12/24 05:34:00;;;;;;;1.0;1.0;;;;;;;9.6;100.0;100670;;;;
2022/12/24 05:35:00;;;;;;;1.0;1.0;;;;;;;9.6;100.0;100670;;;;
2022/12/24 05:36:00;;;;;;;1.0;1.0;;;;;;;9.6;100.0;100680;;;;
2022/12/24 05:37:00;;;;;;;1.0;1.0;;;;;;;9.6;100.0;100680;;;;
2022/12/24 05:38:00;;;;;;;1.0;1.0;;;;;;;9.6;100.0;100680;;;;
2022/12/24 05:39:00;;;;;;;1.0;1.0;;;;;;;9.6;100.0;100680;;;;
2022/12/24 05:40:00;;;;;;;1.0;1.0;;;;;;;9.6;100.0;100670;;;;
2022/12/24 05:41:00;;;;;;;1.0;1.0;;;;;;;9.6;100.0;100670;;;;
2022/12/24 05:42:00;;;;;;;0.8;0.8;;;;;;;9.6;100.0;100670;;;;
2022/12/24 05:43:00;;;;;;;0.8;0.8;;;;;;;9.6;100.0;100670;;;;
2022/12/24 05:44:00;;;;;;;0.8;0.8;;;;;;;9.7;100.0;100680;;;;
2022/12/24 05:45:00;;;;;;;0.8;0.8;;;;;;;9.7;100.0;100680;;;;
2022/12/24 05:46:01;;;;;;;0.8;0.8;;;;;;;9.8;100.0;100680;;;;
2022/12/24 05:47:00;;;;;;;0.8;0.8;;;;;;;9.8;100.0;100680;;;;
2022/12/24 05:48:00;;;;;;;0.8;0.8;;;;;;;9.7;100.0;100680;;;;
2022/12/24 05:49:00;;;;;;;0.8;0.8;;;;;;;9.7;100.0;100680;;;;
2022/12/24 05:50:00;;;;;;;0.8;0.8;;;;;;;9.7;100.0;100690;;;;
2022/12/24 05:51:03;;;;;;;0.8;0.8;;;;;;;9.7;100.0;100690;;;;
2022/12/24 05:52:00;;;;;;;0.8;0.8;;;;;;;9.7;100.0;100690;;;;
2022/12/24 05:53:00;;;;;;;0.8;0.8;;;;;;;9.7;100.0;100690;;;;
2022/12/24 05:54:00;;;;;;;0.8;0.8;;;;;;;9.7;100.0;100690;;;;
2022/12/24 05:55:00;;;;;;;0.8;0.8;;;;;;;9.7;100.0;100690;;;;
2022/12/24 05:56:09;;;;;;;0.8;0.8;;;;;;;9.7;100.0;100690;;;;
2022/12/24 05:57:00;;;;;;;0.8;0.8;;;;;;;9.7;100.0;100690;;;;
2022/12/24 05:58:00;;;;;;;0.8;0.8;;;;;;;9.7;100.0;100690;;;;
2022/12/24 05:59:00;;;;;;;0.8;0.8;;;;;;;9.7;100.0;100690;;;;
2022/12/24 06:00:00;;;;;;;0.8;0.8;;;;;;;9.6;100.0;100700;;;;
2022/12/24 06:01:01;;;;;;;0.8;0.8;;;;;;;9.6;100.0;100700;;;;
2022/12/24 06:02:00;;;;;;;0.9;0.9;;;;;;;9.6;100.0;100700;;;;
2022/12/24 06:03:00;;;;;;;0.9;0.9;;;;;;;9.6;100.0;100700;;;;
2022/12/24 06:04:01;;;;;;;0.9;0.9;;;;;;;9.7;100.0;100710;;;;
2022/12/24 06:05:00;;;;;;;0.9;0.9;;;;;;;9.7;100.0;100710;;;;
2022/12/24 06:06:01;;;;;;;0.9;0.9;;;;;;;9.6;100.0;100720;;;;
2022/12/24 06:07:00;;;;;;;0.9;0.9;;;;;;;9.6;100.0;100720;;;;
2022/12/24 06:08:00;;;;;;;0.9;0.9;;;;;;;9.6;100.0;100720;;;;
2022/12/24 06:09:00;;;;;;;0.9;0.9;;;;;;;9.6;100.0;100720;;;;
2022/12/24 06:10:00;;;;;;;0.9;0.9;;;;;;;9.6;100.0;100720;;;;
2022/12/24 06:11:02;;;;;;;0.9;0.9;;;;;;;9.6;100.0;100720;;;;
2022/12/24 06:12:00;;;;;;;0.9;0.9;;;;;;;9.6;100.0;100720;;;;
2022/12/24 06:13:00;;;;;;;0.9;0.9;;;;;;;9.6;100.0;100720;;;;
2022/12/24 06:14:00;;;;;;;0.9;0.9;;;;;;;9.6;100.0;100720;;;;
2022/12/24 06:15:00;;;;;;;0.9;0.9;;;;;;;9.6;100.0;100720;;;;
2022/12/24 06:16:01;;;;;;;0.9;0.9;;;;;;;9.6;100.0;100720;;;;
2022/12/24 06:17:00;;;;;;;0.9;0.9;;;;;;;9.6;100.0;100720;;;;
2022/12/24 06:18:00;;;;;;;0.9;0.9;;;;;;;9.6;100.0;100730;;;;
2022/12/24 06:19:00;;;;;;;0.9;0.9;;;;;;;9.6;100.0;100730;;;;
2022/12/24 06:20:00;;;;;;;0.9;0.9;;;;;;;9.6;100.0;100720;;;;
2022/12/24 06:21:00;;;;;;;0.9;0.9;;;;;;;9.6;100.0;100720;;;;
2022/12/24 06:22:00;;;;;;;3.7;1.7;;;;;;;9.5;100.0;100730;;;;
2022/12/24 06:23:00;;;;;;;3.7;1.7;;;;;;;9.5;100.0;100730;;;;
2022/12/24 06:24:00;;;;;;;3.7;1.7;;;;;;;9.6;100.0;100730;;;;
2022/12/24 06:25:00;;;;;;;3.7;1.7;;;;;;;9.6;100.0;100730;;;;
2022/12/24 06:26:01;;;;;;;3.7;1.7;;;;;;;9.6;100.0;100730;;;;
2022/12/24 06:27:00;;;;;;;3.7;1.7;;;;;;;9.6;100.0;100730;;;;
2022/12/24 06:28:00;;;;;;;3.7;1.7;;;;;;;9.7;100.0;100740;;;;
2022/12/24 06:29:00;;;;;;;3.7;1.7;;;;;;;9.7;100.0;100740;;;;
2022/12/24 06:30:00;;;;;;;3.7;1.7;;;;;;;9.6;100.0;100730;;;;
2022/12/24 06:31:03;;;;;;;3.7;1.7;;;;;;;9.6;100.0;100730;;;;
2022/12/24 06:32:00;;;;;;;3.7;1.7;;;;;;;9.7;100.0;100730;;;;
2022/12/24 06:33:00;;;;;;;3.7;1.7;;;;;;;9.7;100.0;100730;;;;
2022/12/24 06:34:00;;;;;;;3.7;1.7;;;;;;;9.6;100.0;100730;;;;
2022/12/24 06:35:00;;;;;;;3.7;1.7;;;;;;;9.6;100.0;100730;;;;
2022/12/24 06:36:00;;;;;;;3.7;1.7;;;;;;;9.6;100.0;100730;;;;
2022/12/24 06:37:00;;;;;;;3.7;1.7;;;;;;;9.6;100.0;100730;;;;
2022/12/24 06:38:00;;;;;;;3.7;1.7;;;;;;;9.7;100.0;100740;;;;
2022/12/24 06:39:00;;;;;;;3.7;1.7;;;;;;;9.7;100.0;100740;;;;
2022/12/24 06:40:00;;;;;;;3.7;1.7;;;;;;;9.7;100.0;100740;;;;
2022/12/24 06:41:04;;;;;;;3.7;1.7;;;;;;;9.7;100.0;100740;;;;